Terminal Aerodrome Forecast
Issued by NWS Newport/Morehead City, NC

Home | Current Version | Previous Version | Graphics & Text | Print | Product List | Glossary On
Versions: 1 2 3 4 5 6 7 8 9 10 11 12 13 14 15 16
000
FTUS42 KMHX 212015 AAA
TAFEWN
TAF AMD
KEWN 212015Z 2120/2218 20006KT P6SM VCTS SCT025CB BKN035
     FM220100 20004KT P6SM SCT020 BKN090
     FM221000 21004KT P6SM SCT008 BKN025
     FM221400 21005KT P6SM SCT200=

USA.gov is the U.S. government's official web portal to all federal, state and local government web resources and services.